Airfield :
LOGIN :

Register | Disclaimer

   EN    FR    IT 

 










Legend :    VFR   Marginal VFR   IFR   Intensive IFR   Very Intensive IFR
Visi :
Ceiling :
>= 8 km
>= 3000ft
5 to 8 km
1000 to 3000 ft
1500m to 5 km
500 to 1000 ft
800 to 1500m
200 to 500 ft
< 800m
< 200 ft
Symbols :   Thunderstorms  Fog  Heavy snow  Heavy precipitations  Wind > 20 kt
SIGMETs :     Misc.  Thunderstorms  Icing  Turbulence  Mountain Waves  Volcanic Ashes







- Airport Elevation : 15 ft
- IATA code : BHD
- Download approach charts


EGAC - George Best Belfast City

CURRENT METAR :
  • 171150Z 18012KT 6000 -RA FEW011 BKN033 OVC040 15/15 Q1009

EXPIRED METARs :
  • 171120Z 19013KT 6000 -RA FEW013 SCT021 BKN027 16/14 Q1009
  • 171050Z AUTO 18012KT 9999 -RA FEW016/// SCT021/// BKN033/// 16/14 Q1009
  • 171020Z AUTO 18010KT 9999 -RA FEW027/// SCT033/// OVC040/// 16/13 Q1009
  • 170950Z AUTO 18010KT 9999 -RA BKN035/// BKN042/// OVC049/// 15/13 Q1010
  • 170920Z 18013KT 9999 -RA FEW018 BKN033 15/13 Q1010

TAF TAF EGAC
Valid from the 17 at 12:00 until the 17 at 21:00 UTC


171109Z 1712/1721 18012KT 9999 SCT020 BKN030
TEMPO 1712/1720 4000 RADZ FEW008 BKN014
PROB40 1712/1719 BKN008
BECMG 1718/1721 29007KT
ATIS : +44 02890 935 124
No reported NOTAMs for that airfield.



MET'MAP, your aeronautical weather chart ! - Copyright ORBIFLY December 2007 - Disclaimer

ORBIFLY MET'MAP TEAM :

Programming & Development : Alexandra Zaïnal
Concept & Development : Baudouin d'Aumeries
Co-Development & Prog : Marc-Olivier Méhu
Technical & hardware support : Manuel Goepfert

Contact : metmap@orbifly.com




SOURCES & CREDITS :

   NOAA